バンコク/スワンナプーム の空港の天気 - METARとTAF

スワンナプーム国際空港 ( VTBS / BKK ) - タイ サムットプラーカーン県 (バンコク近郊)
飛行場実況気象(Metar)
観測時間02/22 01:00 ICT (02/21 18:00 UTC)
風向・風速南南西 3m/s
視程10km以上
天気現象
少しの雲 雲底高度 910m
気温27℃
湿度84%
気圧1012hPa
METARVTBS 211800Z 20006KT 9999 FEW030 27/24 Q1012 NOSIG
過去の天気等 Google飛行場航空写真 Wunderground天気予報

過去48時間のMETAR

飛行場予報(TAF)
発表時間: 2/22 00:00 ICT (2/21 17:00 UTC)
予報対象時間: 22日1時 ICT ~ 23日7時 ICT
風向・風速南南西 4m/s
視程10km以上
少しの雲 雲底高度 760m
TAF VTBS 211700Z 2118/2224 20008KT 9999 FEW025